Pagrindinis puslapis
METAR-TAF:

METAR-TAF

Oro uostai :

Mar del Plata, Argentina

platuma: 37-56S, ilguma: 057-35W, Aukštis: 18 m

Dabartinis oras

Ataskaita buvo paskelbta 16 minutes, ne 00:00 UTC
Vėjas 11 kt iš Pietų
Temperatūra 13°C
Drėgmė 54%
Slėgis 1020 hPa
Matomumas 10 km arba daugiau
nėra debesų žemiau 1500 m ir nėra kamuolinių lietaus debesų

METAR: SAZM 200000Z 18011KT CAVOK 13/04 Q1020

Laikas: 21:16 (00:16 UTC)

Prognozė

Ataskaita buvo paskelbta 1 valandą ir 16 minutes, ne 23:00 UTC
Prognozė galioja nuo 20 metu 00 UTC su 20 metu 24 UTC
Vėjas 15 kt iš Pietų/Pietvakarių
Matomumas 10 km arba daugiau
Išsisklaidę debesys ne aukštis 3000 ft
Su prošvaistėmis ne aukštis 10000 ft
Tapsmas
nuo 20 metu 04 UTC su 20 metu 06 UTC
Vėjas 10 kt iš Rytų

TAF: SAZM 192300Z 2000/2024 20015KT 9999 SCT030 BKN100 TX14/2018Z TN06/2010Z BECMG 2004/2006 09010KT

Orai ataskaitas ir orų prognozės (METAR, TAF).

turimą stotys yra geltonos ir raudonos taškus žemėlapyje.

Perkelti pele per norėdami pamatyti stoties vardą.

Tada spustelėkite, norėdami matyti oro stebėjimo ir prognozės.

Norėdami pakeisti žemėlapį: spustelėkite ant žalios mygtukų su juodo kryžiaus žemyn,; žalią mygtuką su brūkšneliu, jei norite nutolinti; arba žalių rodyklių gretimoms žemėlapius.


METAR-TAF: